sensor_id;sensor_type;location;lat;lon;timestamp;pressure;altitude;pressure_sealevel;temperature;humidity
68941;BME280;55982;51.476;7.552;2023-02-11T00:00:11;101518.06;;;6.00;100.00
68941;BME280;55982;51.476;7.552;2023-02-11T00:02:36;101521.53;;;6.02;100.00
68941;BME280;55982;51.476;7.552;2023-02-11T00:05:02;101518.06;;;6.01;100.00
68941;BME280;55982;51.476;7.552;2023-02-11T00:07:28;101507.75;;;6.06;100.00
68941;BME280;55982;51.476;7.552;2023-02-11T00:09:54;101504.25;;;6.04;100.00
68941;BME280;55982;51.476;7.552;2023-02-11T00:12:19;101494.63;;;5.95;100.00
68941;BME280;55982;51.476;7.552;2023-02-11T00:14:44;101487.66;;;5.91;100.00
68941;BME280;55982;51.476;7.552;2023-02-11T00:17:10;101485.00;;;5.87;100.00
68941;BME280;55982;51.476;7.552;2023-02-11T00:19:35;101479.69;;;5.81;100.00
68941;BME280;55982;51.476;7.552;2023-02-11T00:22:00;101474.41;;;5.73;100.00
68941;BME280;55982;51.476;7.552;2023-02-11T00:24:25;101464.81;;;5.69;100.00
68941;BME280;55982;51.476;7.552;2023-02-11T00:26:51;101462.28;;;5.74;100.00
68941;BME280;55982;51.476;7.552;2023-02-11T00:29:16;101464.88;;;5.74;100.00
68941;BME280;55982;51.476;7.552;2023-02-11T00:31:41;101462.22;;;5.71;100.00
68941;BME280;55982;51.476;7.552;2023-02-11T00:34:07;101470.09;;;5.75;100.00
68941;BME280;55982;51.476;7.552;2023-02-11T00:36:32;101475.34;;;5.78;100.00
68941;BME280;55982;51.476;7.552;2023-02-11T00:38:58;101477.78;;;5.68;100.00
68941;BME280;55982;51.476;7.552;2023-02-11T00:41:24;101473.56;;;5.74;100.00
68941;BME280;55982;51.476;7.552;2023-02-11T00:43:50;101476.09;;;5.70;100.00
68941;BME280;55982;51.476;7.552;2023-02-11T00:46:16;101487.47;;;5.79;100.00
68941;BME280;55982;51.476;7.552;2023-02-11T00:48:43;101491.88;;;5.85;100.00
68941;BME280;55982;51.476;7.552;2023-02-11T00:51:09;101485.06;;;5.90;100.00
68941;BME280;55982;51.476;7.552;2023-02-11T00:53:35;101479.84;;;5.90;100.00
68941;BME280;55982;51.476;7.552;2023-02-11T00:56:00;101469.50;;;5.93;100.00
68941;BME280;55982;51.476;7.552;2023-02-11T00:58:26;101479.91;;;5.96;100.00
68941;BME280;55982;51.476;7.552;2023-02-11T01:00:53;101472.97;;;5.95;100.00
68941;BME280;55982;51.476;7.552;2023-02-11T01:03:19;101465.13;;;5.90;100.00
68941;BME280;55982;51.476;7.552;2023-02-11T01:05:45;101457.41;;;5.98;100.00
68941;BME280;55982;51.476;7.552;2023-02-11T01:08:10;101462.53;;;5.92;100.00
68941;BME280;55982;51.476;7.552;2023-02-11T01:10:35;101468.69;;;5.98;100.00
68941;BME280;55982;51.476;7.552;2023-02-11T01:13:01;101464.31;;;5.96;100.00
68941;BME280;55982;51.476;7.552;2023-02-11T01:15:26;101466.09;;;6.00;100.00
68941;BME280;55982;51.476;7.552;2023-02-11T01:17:52;101471.28;;;5.97;100.00
68941;BME280;55982;51.476;7.552;2023-02-11T01:20:23;101478.19;;;5.98;100.00
68941;BME280;55982;51.476;7.552;2023-02-11T01:22:48;101471.22;;;5.94;100.00
68941;BME280;55982;51.476;7.552;2023-02-11T01:25:14;101473.00;;;5.98;100.00
68941;BME280;55982;51.476;7.552;2023-02-11T01:27:39;101478.25;;;6.01;100.00
68941;BME280;55982;51.476;7.552;2023-02-11T01:30:07;101473.06;;;6.01;100.00
68941;BME280;55982;51.476;7.552;2023-02-11T01:32:33;101476.53;;;6.03;100.00
68941;BME280;55982;51.476;7.552;2023-02-11T01:34:58;101480.03;;;6.05;100.00
68941;BME280;55982;51.476;7.552;2023-02-11T01:37:24;101485.22;;;6.05;100.00
68941;BME280;55982;51.476;7.552;2023-02-11T01:39:49;101485.22;;;6.05;100.00
68941;BME280;55982;51.476;7.552;2023-02-11T01:42:16;101485.22;;;6.05;100.00
68941;BME280;55982;51.476;7.552;2023-02-11T01:44:42;101490.44;;;6.05;100.00
68941;BME280;55982;51.476;7.552;2023-02-11T01:47:07;101490.50;;;6.11;100.00
68941;BME280;55982;51.476;7.552;2023-02-11T01:49:36;101457.56;;;6.10;100.00
68941;BME280;55982;51.476;7.552;2023-02-11T01:54:36;101470.47;;;6.04;100.00
68941;BME280;55982;51.476;7.552;2023-02-11T01:57:23;101460.81;;;5.92;100.00
68941;BME280;55982;51.476;7.552;2023-02-11T02:05:21;101469.41;;;5.87;100.00
68941;BME280;55982;51.476;7.552;2023-02-11T02:07:57;101469.38;;;5.84;100.00
68941;BME280;55982;51.476;7.552;2023-02-11T02:10:26;101470.22;;;5.84;100.00
68941;BME280;55982;51.476;7.552;2023-02-11T02:12:52;101472.75;;;5.80;100.00
68941;BME280;55982;51.476;7.552;2023-02-11T02:15:26;101466.69;;;5.78;100.00
68941;BME280;55982;51.476;7.552;2023-02-11T02:17:58;101460.63;;;5.79;100.00
68941;BME280;55982;51.476;7.552;2023-02-11T02:41:18;101423.34;;;5.75;100.00
68941;BME280;55982;51.476;7.552;2023-02-11T02:43:48;101434.63;;;5.76;100.00
68941;BME280;55982;51.476;7.552;2023-02-11T02:46:22;101433.78;;;5.78;100.00
68941;BME280;55982;51.476;7.552;2023-02-11T02:48:49;101431.22;;;5.80;100.00
68941;BME280;55982;51.476;7.552;2023-02-11T02:54:43;101413.88;;;5.79;100.00
68941;BME280;55982;51.476;7.552;2023-02-11T02:57:46;101418.22;;;5.80;100.00
68941;BME280;55982;51.476;7.552;2023-02-11T03:00:41;101419.13;;;5.82;100.00
68941;BME280;55982;51.476;7.552;2023-02-11T03:03:23;101423.41;;;5.78;100.00
68941;BME280;55982;51.476;7.552;2023-02-11T03:06:06;101420.03;;;5.84;100.00
68941;BME280;55982;51.476;7.552;2023-02-11T03:11:08;101408.72;;;5.82;100.00
68941;BME280;55982;51.476;7.552;2023-02-11T03:13:37;101412.25;;;5.84;100.00
68941;BME280;55982;51.476;7.552;2023-02-11T03:16:25;101421.78;;;5.85;100.00
68941;BME280;55982;51.476;7.552;2023-02-11T03:21:36;101432.16;;;5.83;100.00
68941;BME280;55982;51.476;7.552;2023-02-11T03:24:07;101422.56;;;5.81;100.00
68941;BME280;55982;51.476;7.552;2023-02-11T03:26:56;101426.03;;;5.83;100.00
68941;BME280;55982;51.476;7.552;2023-02-11T03:35:10;101431.22;;;5.83;100.00
68941;BME280;55982;51.476;7.552;2023-02-11T03:37:47;101439.81;;;5.77;100.00
68941;BME280;55982;51.476;7.552;2023-02-11T03:40:24;101435.53;;;5.82;100.00
68941;BME280;55982;51.476;7.552;2023-02-11T03:42:56;101431.31;;;5.86;100.00
68941;BME280;55982;51.476;7.552;2023-02-11T03:45:23;101425.16;;;5.81;100.00
68941;BME280;55982;51.476;7.552;2023-02-11T03:47:54;101428.59;;;5.78;100.00
68941;BME280;55982;51.476;7.552;2023-02-11T03:50:21;101419.06;;;5.79;100.00
68941;BME280;55982;51.476;7.552;2023-02-11T03:52:48;101413.97;;;5.85;100.00
68941;BME280;55982;51.476;7.552;2023-02-11T03:55:18;101420.84;;;5.83;100.00
68941;BME280;55982;51.476;7.552;2023-02-11T03:57:46;101415.56;;;5.77;100.00
68941;BME280;55982;51.476;7.552;2023-02-11T04:00:12;101416.47;;;5.77;100.00
68941;BME280;55982;51.476;7.552;2023-02-11T04:02:39;101416.38;;;5.73;100.00
68941;BME280;55982;51.476;7.552;2023-02-11T04:05:08;101415.53;;;5.72;100.00
68941;BME280;55982;51.476;7.552;2023-02-11T04:07:34;101416.34;;;5.68;100.00
68941;BME280;55982;51.476;7.552;2023-02-11T04:09:59;101422.34;;;5.63;100.00
68941;BME280;55982;51.476;7.552;2023-02-11T04:12:25;101409.31;;;5.58;100.00
68941;BME280;55982;51.476;7.552;2023-02-11T04:14:50;101406.63;;;5.53;100.00
68941;BME280;55982;51.476;7.552;2023-02-11T04:17:16;101403.09;;;5.45;100.00
68941;BME280;55982;51.476;7.552;2023-02-11T04:19:41;101397.84;;;5.42;100.00
68941;BME280;55982;51.476;7.552;2023-02-11T04:22:07;101396.91;;;5.36;100.00
68941;BME280;55982;51.476;7.552;2023-02-11T04:24:33;101395.97;;;5.32;100.00
68941;BME280;55982;51.476;7.552;2023-02-11T04:26:59;101398.53;;;5.28;100.00
68941;BME280;55982;51.476;7.552;2023-02-11T04:29:24;101406.28;;;5.26;100.00
68941;BME280;55982;51.476;7.552;2023-02-11T04:31:50;101414.94;;;5.25;100.00
68941;BME280;55982;51.476;7.552;2023-02-11T04:34:15;101423.50;;;5.21;100.00
68941;BME280;55982;51.476;7.552;2023-02-11T04:36:41;101438.19;;;5.19;100.00
68941;BME280;55982;51.476;7.552;2023-02-11T04:39:06;101440.78;;;5.19;100.00
68941;BME280;55982;51.476;7.552;2023-02-11T04:41:32;101438.19;;;5.21;100.00
68941;BME280;55982;51.476;7.552;2023-02-11T04:43:57;101445.06;;;5.17;100.00
68941;BME280;55982;51.476;7.552;2023-02-11T04:46:23;101438.16;;;5.18;100.00
68941;BME280;55982;51.476;7.552;2023-02-11T04:48:48;101436.38;;;5.12;100.00
68941;BME280;55982;51.476;7.552;2023-02-11T04:51:13;101437.16;;;5.08;100.00
68941;BME280;55982;51.476;7.552;2023-02-11T04:53:39;101437.19;;;5.11;100.00
68941;BME280;55982;51.476;7.552;2023-02-11T04:56:04;101425.09;;;5.10;100.00
68941;BME280;55982;51.476;7.552;2023-02-11T04:58:30;101427.69;;;5.10;100.00
68941;BME280;55982;51.476;7.552;2023-02-11T05:00:55;101431.09;;;5.09;100.00
68941;BME280;55982;51.476;7.552;2023-02-11T05:03:20;101437.19;;;5.10;100.00
68941;BME280;55982;51.476;7.552;2023-02-11T05:05:46;101437.19;;;5.11;100.00
68941;BME280;55982;51.476;7.552;2023-02-11T05:08:12;101415.53;;;5.08;100.00
68941;BME280;55982;51.476;7.552;2023-02-11T05:10:37;101428.47;;;5.06;100.00
68941;BME280;55982;51.476;7.552;2023-02-11T05:13:03;101425.91;;;5.08;100.00
68941;BME280;55982;51.476;7.552;2023-02-11T05:15:29;101432.84;;;5.09;100.00
68941;BME280;55982;51.476;7.552;2023-02-11T05:17:55;101433.66;;;5.06;100.00
68941;BME280;55982;51.476;7.552;2023-02-11T05:20:20;101433.72;;;5.09;100.00
68941;BME280;55982;51.476;7.552;2023-02-11T05:22:46;101430.19;;;5.04;100.00
68941;BME280;55982;51.476;7.552;2023-02-11T05:25:11;101428.47;;;5.06;100.00
68941;BME280;55982;51.476;7.552;2023-02-11T05:27:37;101426.78;;;5.08;100.00
68941;BME280;55982;51.476;7.552;2023-02-11T05:30:03;101429.38;;;5.08;100.00
68941;BME280;55982;51.476;7.552;2023-02-11T05:32:29;101418.06;;;5.03;100.00
68941;BME280;55982;51.476;7.552;2023-02-11T05:34:54;101432.78;;;5.06;100.00
68941;BME280;55982;51.476;7.552;2023-02-11T05:37:20;101428.47;;;5.06;100.00
68941;BME280;55982;51.476;7.552;2023-02-11T05:39:45;101439.75;;;5.07;100.00
68941;BME280;55982;51.476;7.552;2023-02-11T05:42:10;101438.03;;;5.09;100.00
68941;BME280;55982;51.476;7.552;2023-02-11T05:44:36;101429.38;;;5.08;100.00
68941;BME280;55982;51.476;7.552;2023-02-11T05:47:01;101426.78;;;5.08;100.00
68941;BME280;55982;51.476;7.552;2023-02-11T05:49:27;101425.09;;;5.10;100.00
68941;BME280;55982;51.476;7.552;2023-02-11T05:51:52;101431.16;;;5.11;100.00
68941;BME280;55982;51.476;7.552;2023-02-11T05:54:17;101434.59;;;5.11;100.00
68941;BME280;55982;51.476;7.552;2023-02-11T05:56:43;101433.72;;;5.09;100.00
68941;BME280;55982;51.476;7.552;2023-02-11T05:59:08;101432.09;;;5.17;100.00
68941;BME280;55982;51.476;7.552;2023-02-11T06:01:33;101437.28;;;5.17;100.00
68941;BME280;55982;51.476;7.552;2023-02-11T06:03:59;101439.06;;;5.18;100.00
68941;BME280;55982;51.476;7.552;2023-02-11T06:06:24;101427.78;;;5.18;100.00
68941;BME280;55982;51.476;7.552;2023-02-11T06:08:50;101426.97;;;5.20;100.00
68941;BME280;55982;51.476;7.552;2023-02-11T06:11:15;101439.06;;;5.21;100.00
68941;BME280;55982;51.476;7.552;2023-02-11T06:13:41;101433.00;;;5.19;100.00
68941;BME280;55982;51.476;7.552;2023-02-11T06:16:06;101436.50;;;5.23;100.00
68941;BME280;55982;51.476;7.552;2023-02-11T06:18:32;101432.09;;;5.17;100.00
68941;BME280;55982;51.476;7.552;2023-02-11T06:21:00;101423.50;;;5.21;100.00
68941;BME280;55982;51.476;7.552;2023-02-11T06:23:26;101435.66;;;5.22;100.00
68941;BME280;55982;51.476;7.552;2023-02-11T06:25:51;101435.66;;;5.22;100.00
68941;BME280;55982;51.476;7.552;2023-02-11T06:28:18;101427.03;;;5.26;100.00
68941;BME280;55982;51.476;7.552;2023-02-11T06:30:43;101428.72;;;5.23;100.00
68941;BME280;55982;51.476;7.552;2023-02-11T06:33:08;101429.63;;;5.26;100.00
68941;BME280;55982;51.476;7.552;2023-02-11T06:35:34;101418.44;;;5.29;100.00
68941;BME280;55982;51.476;7.552;2023-02-11T06:38:02;101421.91;;;5.29;100.00
68941;BME280;55982;51.476;7.552;2023-02-11T06:40:27;101433.97;;;5.27;100.00
68941;BME280;55982;51.476;7.552;2023-02-11T06:42:52;101429.75;;;5.34;100.00
68941;BME280;55982;51.476;7.552;2023-02-11T06:45:18;101415.91;;;5.33;100.00
68941;BME280;55982;51.476;7.552;2023-02-11T06:47:44;101425.47;;;5.37;100.00
68941;BME280;55982;51.476;7.552;2023-02-11T06:50:12;101427.19;;;5.35;100.00
68941;BME280;55982;51.476;7.552;2023-02-11T06:52:38;101428.91;;;5.36;100.00
68941;BME280;55982;51.476;7.552;2023-02-11T06:55:04;101440.16;;;5.35;100.00
68941;BME280;55982;51.476;7.552;2023-02-11T06:57:30;101434.09;;;5.36;100.00
68941;BME280;55982;51.476;7.552;2023-02-11T06:59:56;101434.16;;;5.39;100.00
68941;BME280;55982;51.476;7.552;2023-02-11T07:02:21;101434.25;;;5.45;100.00
68941;BME280;55982;51.476;7.552;2023-02-11T07:04:46;101430.78;;;5.46;100.00
68941;BME280;55982;51.476;7.552;2023-02-11T07:07:12;101433.41;;;5.49;100.00
68941;BME280;55982;51.476;7.552;2023-02-11T07:09:37;101434.28;;;5.48;100.00
68941;BME280;55982;51.476;7.552;2023-02-11T07:12:03;101435.97;;;5.46;100.00
68941;BME280;55982;51.476;7.552;2023-02-11T07:14:28;101441.25;;;5.51;100.00
68941;BME280;55982;51.476;7.552;2023-02-11T07:16:53;101436.00;;;5.49;100.00
68941;BME280;55982;51.476;7.552;2023-02-11T07:19:19;101436.06;;;5.52;100.00
68941;BME280;55982;51.476;7.552;2023-02-11T07:21:44;101436.09;;;5.55;100.00
68941;BME280;55982;51.476;7.552;2023-02-11T07:24:10;101438.66;;;5.52;100.00
68941;BME280;55982;51.476;7.552;2023-02-11T07:26:35;101443.91;;;5.57;100.00
68941;BME280;55982;51.476;7.552;2023-02-11T07:29:01;101444.75;;;5.54;100.00
68941;BME280;55982;51.476;7.552;2023-02-11T07:31:28;101452.50;;;5.53;100.00
68941;BME280;55982;51.476;7.552;2023-02-11T07:33:57;101455.03;;;5.48;100.00
68941;BME280;55982;51.476;7.552;2023-02-11T07:36:24;101464.59;;;5.52;100.00
68941;BME280;55982;51.476;7.552;2023-02-11T07:38:49;101459.44;;;5.54;100.00
68941;BME280;55982;51.476;7.552;2023-02-11T07:41:18;101461.22;;;5.58;100.00
68941;BME280;55982;51.476;7.552;2023-02-11T07:43:43;101450.84;;;5.59;100.00
68941;BME280;55982;51.476;7.552;2023-02-11T07:46:12;101460.34;;;5.57;100.00
68941;BME280;55982;51.476;7.552;2023-02-11T07:48:38;101456.13;;;5.64;100.00
68941;BME280;55982;51.476;7.552;2023-02-11T07:51:07;101457.81;;;5.62;100.00
68941;BME280;55982;51.476;7.552;2023-02-11T07:53:33;101459.69;;;5.72;100.00
68941;BME280;55982;51.476;7.552;2023-02-11T07:55:58;101466.53;;;5.69;100.00
68941;BME280;55982;51.476;7.552;2023-02-11T07:58:23;101465.69;;;5.67;100.00
68941;BME280;55982;51.476;7.552;2023-02-11T08:00:49;101461.34;;;5.69;100.00
68941;BME280;55982;51.476;7.552;2023-02-11T08:03:14;101475.28;;;5.74;100.00
68941;BME280;55982;51.476;7.552;2023-02-11T08:05:40;101467.50;;;5.77;100.00
68941;BME280;55982;51.476;7.552;2023-02-11T08:08:05;101469.28;;;5.78;100.00
68941;BME280;55982;51.476;7.552;2023-02-11T08:10:30;101469.28;;;5.78;100.00
68941;BME280;55982;51.476;7.552;2023-02-11T08:12:55;101465.91;;;5.85;100.00
68941;BME280;55982;51.476;7.552;2023-02-11T08:15:21;101474.59;;;5.87;100.00
68941;BME280;55982;51.476;7.552;2023-02-11T08:17:46;101478.09;;;5.89;100.00
68941;BME280;55982;51.476;7.552;2023-02-11T08:20:12;101478.91;;;5.85;100.00
68941;BME280;55982;51.476;7.552;2023-02-11T08:22:37;101486.78;;;5.91;100.00
68941;BME280;55982;51.476;7.552;2023-02-11T08:25:02;101485.06;;;5.93;100.00
68941;BME280;55982;51.476;7.552;2023-02-11T08:27:28;101479.88;;;5.93;100.00
68941;BME280;55982;51.476;7.552;2023-02-11T08:29:53;101486.84;;;5.97;100.00
68941;BME280;55982;51.476;7.552;2023-02-11T08:32:19;101492.84;;;5.91;100.00
68941;BME280;55982;51.476;7.552;2023-02-11T08:34:45;101502.38;;;5.94;100.00
68941;BME280;55982;51.476;7.552;2023-02-11T08:37:10;101504.16;;;5.95;100.00
68941;BME280;55982;51.476;7.552;2023-02-11T08:39:35;101511.16;;;6.02;100.00
68941;BME280;55982;51.476;7.552;2023-02-11T08:42:01;101512.03;;;6.04;100.00
68941;BME280;55982;51.476;7.552;2023-02-11T08:44:26;101507.66;;;6.00;100.00
68941;BME280;55982;51.476;7.552;2023-02-11T08:46:52;101519.00;;;6.05;100.00
68941;BME280;55982;51.476;7.552;2023-02-11T08:49:18;101517.28;;;6.07;100.00
68941;BME280;55982;51.476;7.552;2023-02-11T08:51:44;101526.91;;;6.14;100.00
68941;BME280;55982;51.476;7.552;2023-02-11T08:54:10;101517.31;;;6.08;100.00
68941;BME280;55982;51.476;7.552;2023-02-11T08:56:36;101518.19;;;6.09;100.00
68941;BME280;55982;51.476;7.552;2023-02-11T08:59:02;101521.69;;;6.14;100.00
68941;BME280;55982;51.476;7.552;2023-02-11T09:01:29;101525.22;;;6.19;100.00
68941;BME280;55982;51.476;7.552;2023-02-11T09:03:56;101526.91;;;6.17;100.00
68941;BME280;55982;51.476;7.552;2023-02-11T09:06:23;101523.59;;;6.27;100.00
68941;BME280;55982;51.476;7.552;2023-02-11T09:08:51;101532.28;;;6.29;100.00
68941;BME280;55982;51.476;7.552;2023-02-11T09:11:20;101539.31;;;6.39;100.00
68941;BME280;55982;51.476;7.552;2023-02-11T09:13:46;101539.28;;;6.36;100.00
68941;BME280;55982;51.476;7.552;2023-02-11T09:16:22;101537.56;;;6.38;100.00
68941;BME280;55982;51.476;7.552;2023-02-11T09:18:48;101542.84;;;6.44;100.00
68941;BME280;55982;51.476;7.552;2023-02-11T09:21:15;101528.25;;;6.58;100.00
68941;BME280;55982;51.476;7.552;2023-02-11T09:23:41;101537.72;;;6.50;100.00
68941;BME280;55982;51.476;7.552;2023-02-11T09:26:12;101530.88;;;6.58;100.00
68941;BME280;55982;51.476;7.552;2023-02-11T09:28:39;101536.88;;;6.51;100.00
68941;BME280;55982;51.476;7.552;2023-02-11T09:31:06;101541.34;;;6.67;100.00
68941;BME280;55982;51.476;7.552;2023-02-11T09:33:32;101536.22;;;6.73;100.00
68941;BME280;55982;51.476;7.552;2023-02-11T09:36:02;101538.97;;;6.88;100.00
68941;BME280;55982;51.476;7.552;2023-02-11T09:38:27;101529.44;;;6.90;100.00
68941;BME280;55982;51.476;7.552;2023-02-11T09:40:53;101538.13;;;6.89;100.00
68941;BME280;55982;51.476;7.552;2023-02-11T09:43:21;101545.97;;;6.95;100.00
68941;BME280;55982;51.476;7.552;2023-02-11T09:45:48;101559.00;;;6.95;100.00
68941;BME280;55982;51.476;7.552;2023-02-11T09:48:17;101550.31;;;6.99;100.00
68941;BME280;55982;51.476;7.552;2023-02-11T09:50:50;101555.59;;;7.05;100.00
68941;BME280;55982;51.476;7.552;2023-02-11T09:53:26;101559.84;;;6.96;100.00
68941;BME280;55982;51.476;7.552;2023-02-11T09:55:54;101567.56;;;6.85;100.00
68941;BME280;55982;51.476;7.552;2023-02-11T10:06:52;101555.31;;;6.78;100.00
68941;BME280;55982;51.476;7.552;2023-02-11T10:09:44;101563.19;;;6.84;100.00
68941;BME280;55982;51.476;7.552;2023-02-11T10:17:57;101574.63;;;6.98;100.00
68941;BME280;55982;51.476;7.552;2023-02-11T10:20:38;101576.19;;;6.84;100.00
68941;BME280;55982;51.476;7.552;2023-02-11T10:23:14;101581.53;;;6.93;100.00
68941;BME280;55982;51.476;7.552;2023-02-11T10:25:49;101578.84;;;6.87;100.00
68941;BME280;55982;51.476;7.552;2023-02-11T10:28:20;101581.47;;;6.90;100.00
68941;BME280;55982;51.476;7.552;2023-02-11T10:30:57;101581.47;;;6.90;100.00
68941;BME280;55982;51.476;7.552;2023-02-11T10:33:33;101583.31;;;7.03;100.00
68941;BME280;55982;51.476;7.552;2023-02-11T10:36:01;101583.38;;;7.06;100.00
68941;BME280;55982;51.476;7.552;2023-02-11T10:38:27;101586.88;;;7.08;100.00
68941;BME280;55982;51.476;7.552;2023-02-11T10:40:53;101585.28;;;7.25;100.00
68941;BME280;55982;51.476;7.552;2023-02-11T10:43:21;101593.84;;;7.12;100.00
68941;BME280;55982;51.476;7.552;2023-02-11T10:45:51;101592.16;;;7.20;100.00
68941;BME280;55982;51.476;7.552;2023-02-11T10:48:45;101598.22;;;7.16;100.00
68941;BME280;55982;51.476;7.552;2023-02-11T10:51:24;101596.59;;;7.32;100.00
68941;BME280;55982;51.476;7.552;2023-02-11T10:54:19;101592.28;;;7.32;100.00
68941;BME280;55982;51.476;7.552;2023-02-11T10:56:48;101593.16;;;7.34;100.00
68941;BME280;55982;51.476;7.552;2023-02-11T10:59:32;101599.25;;;7.36;100.00
68941;BME280;55982;51.476;7.552;2023-02-11T11:02:22;101595.75;;;7.36;100.00
68941;BME280;55982;51.476;7.552;2023-02-11T11:04:50;101587.88;;;7.27;100.00
68941;BME280;55982;51.476;7.552;2023-02-11T11:07:22;101597.47;;;7.29;100.00
68941;BME280;55982;51.476;7.552;2023-02-11T11:09:57;101586.13;;;7.24;100.00
68941;BME280;55982;51.476;7.552;2023-02-11T11:12:33;101592.19;;;7.23;100.00
68941;BME280;55982;51.476;7.552;2023-02-11T11:17:49;101593.16;;;7.34;100.00
68941;BME280;55982;51.476;7.552;2023-02-11T11:23:22;101603.63;;;7.40;100.00
68941;BME280;55982;51.476;7.552;2023-02-11T11:26:05;101604.38;;;7.27;100.00
68941;BME280;55982;51.476;7.552;2023-02-11T11:29:00;101600.97;;;7.33;100.00
68941;BME280;55982;51.476;7.552;2023-02-11T11:31:36;101601.03;;;7.43;100.00
68941;BME280;55982;51.476;7.552;2023-02-11T11:34:37;101618.44;;;7.48;100.00
68941;BME280;55982;51.476;7.552;2023-02-11T11:37:13;101599.41;;;7.55;100.00
68941;BME280;55982;51.476;7.552;2023-02-11T11:39:50;101606.34;;;7.53;100.00
68941;BME280;55982;51.476;7.552;2023-02-11T11:42:43;101604.63;;;7.55;100.00
68941;BME280;55982;51.476;7.552;2023-02-11T11:47:51;101596.63;;;7.33;100.00
68941;BME280;55982;51.476;7.552;2023-02-11T11:52:55;101602.84;;;7.54;100.00
68941;BME280;55982;51.476;7.552;2023-02-11T11:56:05;101607.22;;;7.58;100.00
68941;BME280;55982;51.476;7.552;2023-02-11T11:58:34;101594.16;;;7.52;100.00
68941;BME280;55982;51.476;7.552;2023-02-11T12:07:10;101581.03;;;7.38;100.00
68941;BME280;55982;51.476;7.552;2023-02-11T12:12:40;101565.41;;;7.36;100.00
68941;BME280;55982;51.476;7.552;2023-02-11T12:26:22;101575.88;;;7.44;100.00
68941;BME280;55982;51.476;7.552;2023-02-11T12:29:00;101580.19;;;7.40;100.00
68941;BME280;55982;51.476;7.552;2023-02-11T12:32:14;101576.75;;;7.48;100.00
68941;BME280;55982;51.476;7.552;2023-02-11T12:35:10;101578.47;;;7.39;100.00
68941;BME280;55982;51.476;7.552;2023-02-11T12:40:42;101581.91;;;7.41;100.00
68941;BME280;55982;51.476;7.552;2023-02-11T12:43:22;101594.09;;;7.43;100.00
68941;BME280;55982;51.476;7.552;2023-02-11T12:46:23;101589.78;;;7.48;100.00
68941;BME280;55982;51.476;7.552;2023-02-11T12:52:17;101582.00;;;7.51;100.00
68941;BME280;55982;51.476;7.552;2023-02-11T12:54:53;101583.66;;;7.39;100.00
68941;BME280;55982;51.476;7.552;2023-02-11T12:57:23;101575.00;;;7.43;100.00
68941;BME280;55982;51.476;7.552;2023-02-11T13:03:11;101594.91;;;7.37;100.00
68941;BME280;55982;51.476;7.552;2023-02-11T13:05:32;101588.06;;;7.47;100.00
68941;BME280;55982;51.476;7.552;2023-02-11T13:08:27;101590.56;;;7.34;100.00
68941;BME280;55982;51.476;7.552;2023-02-11T13:10:55;101580.19;;;7.43;100.00
68941;BME280;55982;51.476;7.552;2023-02-11T13:13:29;101582.84;;;7.47;100.00
68941;BME280;55982;51.476;7.552;2023-02-11T13:16:03;101575.03;;;7.50;100.00
68941;BME280;55982;51.476;7.552;2023-02-11T13:21:40;101564.56;;;7.37;100.00
68941;BME280;55982;51.476;7.552;2023-02-11T13:26:57;101562.84;;;7.44;100.00
68941;BME280;55982;51.476;7.552;2023-02-11T13:29:27;101557.69;;;7.52;100.00
68941;BME280;55982;51.476;7.552;2023-02-11T13:37:30;101576.84;;;7.60;100.00
68941;BME280;55982;51.476;7.552;2023-02-11T13:42:23;101579.50;;;7.66;100.00
68941;BME280;55982;51.476;7.552;2023-02-11T13:44:49;101564.75;;;7.68;100.00
68941;BME280;55982;51.476;7.552;2023-02-11T13:47:27;101562.13;;;7.60;100.00
68941;BME280;55982;51.476;7.552;2023-02-11T13:49:56;101568.16;;;7.58;100.00
68941;BME280;55982;51.476;7.552;2023-02-11T13:52:29;101578.63;;;7.64;100.00
68941;BME280;55982;51.476;7.552;2023-02-11T13:55:08;101591.66;;;7.64;100.00
68941;BME280;55982;51.476;7.552;2023-02-11T13:57:40;101576.97;;;7.75;100.00
68941;BME280;55982;51.476;7.552;2023-02-11T14:12:32;101583.94;;;7.76;100.00
68941;BME280;55982;51.476;7.552;2023-02-11T14:17:31;101582.16;;;7.75;100.00
68941;BME280;55982;51.476;7.552;2023-02-11T14:20:00;101582.94;;;7.60;100.00
68941;BME280;55982;51.476;7.552;2023-02-11T14:22:47;101586.44;;;7.67;100.00
68941;BME280;55982;51.476;7.552;2023-02-11T14:25:21;101575.19;;;7.71;100.00
68941;BME280;55982;51.476;7.552;2023-02-11T14:27:52;101575.22;;;7.74;100.00
68941;BME280;55982;51.476;7.552;2023-02-11T14:30:42;101584.78;;;7.75;100.00
68941;BME280;55982;51.476;7.552;2023-02-11T14:34:13;101588.25;;;7.78;100.00
68941;BME280;55982;51.476;7.552;2023-02-11T14:36:37;101590.88;;;7.74;100.00
68941;BME280;55982;51.476;7.552;2023-02-11T14:41:54;101579.66;;;7.87;100.00
68941;BME280;55982;51.476;7.552;2023-02-11T14:44:23;101573.56;;;7.85;100.00
68941;BME280;55982;51.476;7.552;2023-02-11T14:46:50;101573.56;;;7.82;100.00
68941;BME280;55982;51.476;7.552;2023-02-11T14:49:36;101573.63;;;7.97;100.00
68941;BME280;55982;51.476;7.552;2023-02-11T14:52:18;101578.94;;;8.21;100.00
68941;BME280;55982;51.476;7.552;2023-02-11T14:54:48;101582.41;;;8.17;100.00
68941;BME280;55982;51.476;7.552;2023-02-11T14:57:17;101579.00;;;8.27;100.00
68941;BME280;55982;51.476;7.552;2023-02-11T14:59:55;101580.78;;;8.29;100.00
68941;BME280;55982;51.476;7.552;2023-02-11T15:02:36;101586.88;;;8.36;100.00
68941;BME280;55982;51.476;7.552;2023-02-11T15:05:26;101582.56;;;8.41;100.00
68941;BME280;55982;51.476;7.552;2023-02-11T15:07:54;101582.56;;;8.44;100.00
68941;BME280;55982;51.476;7.552;2023-02-11T15:10:33;101577.38;;;8.49;100.00
68941;BME280;55982;51.476;7.552;2023-02-11T15:13:00;101587.81;;;8.50;100.00